createdAt,value
2018-07-15T19:14:25.526Z,29.32
2018-07-15T19:17:08.466Z,29.26
2018-07-15T19:19:42.407Z,29.20
2018-07-15T19:22:15.418Z,29.11
2018-07-15T19:24:50.029Z,29.12
2018-07-15T19:27:23.980Z,29.06
2018-07-15T19:30:08.200Z,28.99
2018-07-15T19:32:39.758Z,28.92
2018-07-15T19:35:17.249Z,28.88
2018-07-15T19:37:51.642Z,28.80
2018-07-15T19:40:23.153Z,28.74
2018-07-15T19:45:39.647Z,28.52
2018-07-15T19:48:15.241Z,28.50
2018-07-15T19:50:48.559Z,28.48
2018-07-15T19:53:20.325Z,28.31
2018-07-15T19:55:53.389Z,28.24
2018-07-15T19:58:25.972Z,28.13
2018-07-15T20:00:58.916Z,28.06
2018-07-15T20:03:32.287Z,28.04
2018-07-15T20:06:03.488Z,28.01
2018-07-15T20:08:39.678Z,27.93
2018-07-15T20:11:14.874Z,27.85
2018-07-15T20:13:48.353Z,27.79
2018-07-15T20:16:26.036Z,27.71
2018-07-15T20:19:00.625Z,27.65
2018-07-15T20:21:33.338Z,27.58
2018-07-15T20:24:07.182Z,27.52
2018-07-15T20:26:38.356Z,27.59
2018-07-15T20:29:11.387Z,27.48
2018-07-15T20:31:47.158Z,27.48
2018-07-15T20:34:20.097Z,27.45
2018-07-15T20:37:14.764Z,27.44
2018-07-15T20:39:52.370Z,27.42
2018-07-15T20:42:24.681Z,27.47
2018-07-15T20:44:58.497Z,27.31
2018-07-15T20:47:30.348Z,27.22
2018-07-15T20:50:01.588Z,27.16
2018-07-15T20:52:33.409Z,27.17
2018-07-15T20:55:09.513Z,27.16
2018-07-15T20:57:46.780Z,27.11
2018-07-15T21:00:20.299Z,27.12
2018-07-15T21:02:59.521Z,27.02
2018-07-15T21:05:36.917Z,26.96
2018-07-15T21:08:13.280Z,26.87
2018-07-15T21:10:49.578Z,26.78
2018-07-15T21:13:26.471Z,26.71
2018-07-15T21:16:02.414Z,26.56
2018-07-15T21:18:34.053Z,26.56
2018-07-15T21:21:06.775Z,26.49
2018-07-15T21:23:37.598Z,26.48
2018-07-15T21:26:09.161Z,26.54
2018-07-15T21:28:39.433Z,26.56
2018-07-15T21:31:11.755Z,26.50
2018-07-15T21:33:43.915Z,26.37
2018-07-15T21:36:15.671Z,26.30
2018-07-15T21:38:48.458Z,26.23
2018-07-15T21:41:18.779Z,26.21
2018-07-15T21:43:57.680Z,26.28
2018-07-15T21:46:31.487Z,26.17
2018-07-15T21:49:04.377Z,26.11
2018-07-15T21:51:36.970Z,26.11
2018-07-15T21:54:10.433Z,25.96
2018-07-15T21:56:43.877Z,25.83
2018-07-15T21:59:14.253Z,25.76
2018-07-15T22:01:45.602Z,25.72
2018-07-15T22:04:16.611Z,25.67
2018-07-15T22:07:00.351Z,25.64
2018-07-15T22:09:56.971Z,25.57
2018-07-15T22:12:27.345Z,25.47
2018-07-15T22:14:58.107Z,25.47
2018-07-15T22:17:28.608Z,25.44
2018-07-15T22:20:01.171Z,25.52
2018-07-15T22:22:32.260Z,25.50
2018-07-15T22:25:03.445Z,25.45
2018-07-15T22:27:34.519Z,25.53
2018-07-15T22:30:08.744Z,25.49
2018-07-15T22:32:39.915Z,25.44
2018-07-15T22:35:13.660Z,25.45
2018-07-15T22:40:19.544Z,25.40
2018-07-15T22:42:59.631Z,25.36
2018-07-15T22:45:37.797Z,25.27
2018-07-15T22:48:08.504Z,25.35
2018-07-15T22:50:38.757Z,25.26
2018-07-15T22:53:17.267Z,25.17
2018-07-15T22:55:48.642Z,25.13
2018-07-15T22:58:27.860Z,25.11
2018-07-15T23:01:00.592Z,25.00
2018-07-15T23:03:31.037Z,25.02
2018-07-15T23:06:12.248Z,24.99
2018-07-15T23:08:42.517Z,25.03
2018-07-15T23:11:12.834Z,24.99
2018-07-15T23:13:43.903Z,24.88
2018-07-15T23:16:14.393Z,24.95
2018-07-15T23:18:45.114Z,24.94
2018-07-15T23:21:15.584Z,24.88
2018-07-15T23:23:46.421Z,24.85
2018-07-15T23:26:16.561Z,24.78
2018-07-15T23:28:47.727Z,24.78
2018-07-15T23:31:18.678Z,24.79
2018-07-15T23:33:48.934Z,24.76
2018-07-15T23:36:20.498Z,24.70
2018-07-15T23:38:54.180Z,24.59
2018-07-15T23:41:24.545Z,24.54
2018-07-15T23:43:54.824Z,24.49
2018-07-15T23:46:26.448Z,24.61
2018-07-15T23:48:57.371Z,24.59
2018-07-15T23:51:30.273Z,24.71
2018-07-15T23:54:02.760Z,24.69
2018-07-15T23:56:32.928Z,24.60
2018-07-15T23:59:04.025Z,24.60
